SAWG/RGL METAR and TAF weather

Enter ICAO airport designator
Station Type Date Time Source
SAWG METAR 2020/09/25 06:00 UTC NOAA

SAWG 250600Z 25009KT CAVOK 07/M01 Q1006


Station Type Date Time Source
SAWG Decoded METAR 2020/09/25 06:00 UTC NOAA

Rio Gallegos Aerodrome, Argentina (SAWG) 51-37S 069-17W 19M
Sep 25, 2020 - 02:00 AM EDT / 2020.09.25 0600 UTC
Wind: from the WSW (250 degrees) at 10 MPH (9 KT):0
Visibility: greater than 7 mile(s):0
Temperature: 44 F (7 C)
Dew Point: 30 F (-1 C)
Relative Humidity: 56%
Pressure (altimeter): 29.71 in. Hg (1006 hPa)
ob: SAWG 250600Z 25009KT CAVOK 07/M01 Q1006
cycle: 6

Station Type Date Time Source
SAWG TAF 2020/09/25 06:12 UTC NOAA

TAF SAWG 250500Z 2506/2606 27010G20KT 9999 SCT040 SCT100 TX18/2519Z TN05/2511Z
BECMG 2507/2509 29010KT
TEMPO 2514/2518 36010KT 9999 BKN035
BECMG 2518/2522 27010KT FEW030 SCT100

Example: see airport list